Time;durP1;ratioP1;P1;durP2;ratioP2;P2;SDS_P1;SDS_P2;PMS_P1;PMS_P2;Temp;Humidity;BMP_temperature;BMP_pressure;BME280_temperature;BME280_humidity;BME280_pressure;Samples;Min_cycle;Max_cycle;Signal;HPM_P1;HPM_P2
2019/04/08 00:01:32;;;;;;;12.4;11.2;;;;;;;10.95;73.18262;951.136;;;;
2019/04/08 00:03:54;;;;;;;12.8;11.5;;;;;;;10.96;73.05566;951.1395;;;;
2019/04/08 00:06:19;;;;;;;12.7;11.4;;;;;;;10.84;73.6123;951.1994;;;;
2019/04/08 00:08:44;;;;;;;13.6;12.3;;;;;;;10.8;74.60742;951.2034;;;;
2019/04/08 00:11:09;;;;;;;14.6;13.2;;;;;;;10.73;74.98633;951.189;;;;
2019/04/08 00:13:34;;;;;;;13.7;12.1;;;;;;;10.77;74.68164;951.1152;;;;
2019/04/08 00:15:59;;;;;;;14.6;13.1;;;;;;;10.67;75.64355;951.1121;;;;
2019/04/08 00:18:24;;;;;;;13.9;12.5;;;;;;;10.59;76.37793;951.1206;;;;
2019/04/08 00:20:49;;;;;;;15.7;14.1;;;;;;;10.26;78.48242;951.0446;;;;
2019/04/08 00:23:15;;;;;;;14.5;13.1;;;;;;;10.34;78.16211;951.024;;;;
2019/04/08 00:25:40;;;;;;;15.6;14;;;;;;;10.36;78.33984;951.0609;;;;
2019/04/08 00:28:05;;;;;;;14.5;13;;;;;;;10.61;77.33789;951.1314;;;;
2019/04/08 00:30:30;;;;;;;14.8;13.3;;;;;;;10.28;78.45117;951.1856;;;;
2019/04/08 00:32:55;;;;;;;14.2;12.8;;;;;;;10.31;78.74219;951.1924;;;;
2019/04/08 00:35:20;;;;;;;13.3;12.1;;;;;;;10.45;77.94141;951.2079;;;;
2019/04/08 00:37:45;;;;;;;14.1;12.7;;;;;;;10.39;78.43652;951.2231;;;;
2019/04/08 00:40:10;;;;;;;12.4;11.2;;;;;;;10.36;77.82031;951.2001;;;;
2019/04/08 00:42:36;;;;;;;11.9;10.7;;;;;;;10.51;77.5498;951.1667;;;;
2019/04/08 00:45:01;;;;;;;12.2;11;;;;;;;10.6;76.89844;951.2756;;;;
2019/04/08 00:47:26;;;;;;;11.7;10.6;;;;;;;10.56;76.85645;951.267;;;;
2019/04/08 00:49:51;;;;;;;11.8;10.7;;;;;;;10.45;76.79102;951.3301;;;;
2019/04/08 00:52:17;;;;;;;10.3;9.3;;;;;;;10.51;76.12305;951.3321;;;;
2019/04/08 00:54:42;;;;;;;10.4;9.5;;;;;;;10.59;76.02051;951.2944;;;;
2019/04/08 00:57:07;;;;;;;11.8;10.7;;;;;;;10.31;77.09961;951.2437;;;;
2019/04/08 00:59:32;;;;;;;10.8;9.8;;;;;;;10.27;77.12695;951.2614;;;;
2019/04/08 01:01:57;;;;;;;11.7;10.5;;;;;;;10.06;77.87207;951.1856;;;;
2019/04/08 01:04:22;;;;;;;11.4;10.3;;;;;;;10.15;77.50781;951.2424;;;;
2019/04/08 01:06:47;;;;;;;10.6;9.5;;;;;;;10.3;77.02832;951.2413;;;;
2019/04/08 01:09:12;;;;;;;10.8;9.7;;;;;;;10.18;77.20313;951.2866;;;;
2019/04/08 01:11:38;;;;;;;12.2;11;;;;;;;10.08;77.67871;951.28;;;;
2019/04/08 01:14:03;;;;;;;10.3;9.3;;;;;;;10.18;77.58301;951.3517;;;;
2019/04/08 01:16:28;;;;;;;11.7;10.5;;;;;;;10.26;77.20605;951.3963;;;;
2019/04/08 01:18:54;;;;;;;11.5;10.4;;;;;;;10.11;77.82324;951.4156;;;;
2019/04/08 01:21:20;;;;;;;11.8;10.6;;;;;;;10.03;78.03809;951.3628;;;;
2019/04/08 01:23:45;;;;;;;11.8;10.6;;;;;;;10.19;77.45801;951.3688;;;;
2019/04/08 01:26:10;;;;;;;10.8;9.8;;;;;;;10.25;77.36426;951.3456;;;;
2019/04/08 01:28:35;;;;;;;12;10.8;;;;;;;10.3;77.16699;951.3577;;;;
2019/04/08 01:31:00;;;;;;;12;10.8;;;;;;;10.3;77.18945;951.3716;;;;
2019/04/08 01:33:25;;;;;;;11.6;10.4;;;;;;;10.32;77.06641;951.3039;;;;
2019/04/08 01:35:50;;;;;;;12.9;11.6;;;;;;;10.23;77.56641;951.2737;;;;
2019/04/08 01:38:15;;;;;;;12.1;10.9;;;;;;;10.16;78.22168;951.2977;;;;
2019/04/08 01:40:41;;;;;;;12.6;11.4;;;;;;;10.14;78.9082;951.3431;;;;
2019/04/08 01:43:06;;;;;;;12.2;11;;;;;;;10.22;78.58984;951.3828;;;;
2019/04/08 01:45:31;;;;;;;13.5;12.2;;;;;;;10.11;79.12402;951.4587;;;;
2019/04/08 01:47:56;;;;;;;14.9;13.4;;;;;;;10.01;79.75879;951.4342;;;;
2019/04/08 01:50:21;;;;;;;14.3;12.8;;;;;;;10.08;79.24219;951.4623;;;;
2019/04/08 01:52:46;;;;;;;13.8;12.3;;;;;;;10.08;78.96777;951.4056;;;;
2019/04/08 01:55:12;;;;;;;14.6;13.1;;;;;;;10.06;79.1709;951.3769;;;;
2019/04/08 01:57:37;;;;;;;13.5;12.2;;;;;;;10.09;79.36035;951.3698;;;;
2019/04/08 02:00:02;;;;;;;14.9;13.5;;;;;;;9.99;79.47852;951.3753;;;;
2019/04/08 02:02:27;;;;;;;13.9;12.4;;;;;;;10.08;79.36816;951.3622;;;;
2019/04/08 02:04:53;;;;;;;15.4;13.9;;;;;;;9.98;79.65039;951.4412;;;;
2019/04/08 02:07:18;;;;;;;14;12.6;;;;;;;10.03;79.5;951.41;;;;
2019/04/08 02:09:44;;;;;;;15.2;13.7;;;;;;;10.12;79.1123;951.4319;;;;
2019/04/08 02:12:09;;;;;;;15.2;13.7;;;;;;;10.14;79.13867;951.4433;;;;
2019/04/08 02:14:34;;;;;;;15.3;13.8;;;;;;;10.03;79.65723;951.463;;;;
2019/04/08 02:16:59;;;;;;;15.7;14.2;;;;;;;10.02;79.87402;951.4855;;;;
2019/04/08 02:19:24;;;;;;;16.5;14.8;;;;;;;10.01;79.80469;951.4733;;;;
2019/04/08 02:21:49;;;;;;;16.2;14.2;;;;;;;10.09;79.47559;951.5171;;;;
2019/04/08 02:24:14;;;;;;;16.3;14.7;;;;;;;10.07;79.66602;951.4973;;;;
2019/04/08 02:26:39;;;;;;;15.8;14.2;;;;;;;10.04;79.52246;951.5044;;;;
2019/04/08 02:29:05;;;;;;;15.4;13.8;;;;;;;10.05;79.47852;951.4865;;;;
2019/04/08 02:31:33;;;;;;;17.2;15.4;;;;;;;10.06;79.50293;951.525;;;;
2019/04/08 02:33:56;;;;;;;17.1;15.4;;;;;;;9.9;80.15332;951.5491;;;;
2019/04/08 02:36:21;;;;;;;16.7;15;;;;;;;10.11;79.5459;951.6417;;;;
2019/04/08 02:38:46;;;;;;;17.5;15.7;;;;;;;9.93;80.02051;951.6808;;;;
2019/04/08 02:41:11;;;;;;;16.5;14.9;;;;;;;9.97;79.96973;951.6724;;;;
2019/04/08 02:43:36;;;;;;;18.4;16.5;;;;;;;9.81;80.80273;951.7875;;;;
2019/04/08 02:46:01;;;;;;;16.8;15;;;;;;;9.9;80.26758;951.8005;;;;
2019/04/08 02:48:26;;;;;;;17.1;15.3;;;;;;;10.01;79.87207;951.8208;;;;
2019/04/08 02:50:52;;;;;;;17.6;15.8;;;;;;;9.97;79.95801;951.8376;;;;
2019/04/08 02:53:17;;;;;;;16.8;15.1;;;;;;;9.93;80.03125;951.8802;;;;
2019/04/08 02:55:42;;;;;;;15.7;14.2;;;;;;;10.02;79.76074;951.9236;;;;
2019/04/08 02:58:07;;;;;;;16.6;14.7;;;;;;;9.96;79.7373;951.9553;;;;
2019/04/08 03:00:32;;;;;;;15.6;14;;;;;;;9.98;79.47656;951.932;;;;
2019/04/08 03:02:57;;;;;;;15.8;14.1;;;;;;;9.95;79.58691;951.9651;;;;
2019/04/08 03:05:22;;;;;;;13.9;12.6;;;;;;;10.05;79.02051;951.9899;;;;
2019/04/08 03:07:47;;;;;;;13.7;12.2;;;;;;;10;79.125;951.9689;;;;
2019/04/08 03:10:12;;;;;;;13.5;12.2;;;;;;;10.03;78.6709;952.0181;;;;
2019/04/08 03:12:37;;;;;;;12.5;11.3;;;;;;;9.98;78.59375;951.9752;;;;
2019/04/08 03:15:03;;;;;;;11.8;10.6;;;;;;;9.96;78.33594;951.9252;;;;
2019/04/08 03:17:28;;;;;;;10.8;9.7;;;;;;;9.96;77.70313;951.9512;;;;
2019/04/08 03:19:53;;;;;;;10.4;9.4;;;;;;;9.8;78.1582;951.9792;;;;
2019/04/08 03:22:18;;;;;;;10.1;9.2;;;;;;;9.83;77.83008;951.9941;;;;
2019/04/08 03:24:43;;;;;;;9.9;8.9;;;;;;;9.85;77.17871;951.9009;;;;
2019/04/08 03:27:08;;;;;;;10.6;8.5;;;;;;;10.03;76.53223;951.9359;;;;
2019/04/08 03:29:33;;;;;;;9;8.1;;;;;;;9.99;76.19141;951.9442;;;;
2019/04/08 03:31:58;;;;;;;8.5;7.7;;;;;;;10.07;75.63086;952.0101;;;;
2019/04/08 03:34:24;;;;;;;8.3;7.5;;;;;;;10.05;75.5127;952.0466;;;;
2019/04/08 03:36:49;;;;;;;8.2;7.4;;;;;;;9.88;75.88672;952.0891;;;;
2019/04/08 03:39:14;;;;;;;8.2;7.3;;;;;;;9.9;75.99121;952.0785;;;;
2019/04/08 03:41:39;;;;;;;8;7.2;;;;;;;10.02;75.98926;952.0756;;;;
2019/04/08 03:44:04;;;;;;;7.3;6.4;;;;;;;10.13;75.28711;952.0774;;;;
2019/04/08 03:46:30;;;;;;;8.6;7.7;;;;;;;10.1;75.00488;952.1024;;;;
2019/04/08 03:48:55;;;;;;;8.3;6.9;;;;;;;10.06;74.91797;952.1103;;;;
2019/04/08 03:51:20;;;;;;;7.5;6.8;;;;;;;10.14;74.83984;952.1811;;;;
2019/04/08 03:53:46;;;;;;;6.9;6.2;;;;;;;10.15;74.64453;952.1761;;;;
2019/04/08 03:56:11;;;;;;;7.9;7.1;;;;;;;10.05;75.12207;952.142;;;;
2019/04/08 03:58:37;;;;;;;8.1;7.2;;;;;;;10.03;75.15137;952.1401;;;;
2019/04/08 04:02:39;;;;;;;7.3;6.6;;;;;;;10.03;75.22363;952.1523;;;;
2019/04/08 04:05:19;;;;;;;7.7;6.9;;;;;;;10.12;75.14551;952.123;;;;
2019/04/08 04:07:34;;;;;;;7.9;7.1;;;;;;;10.08;75.18555;952.1781;;;;
2019/04/08 04:09:55;;;;;;;8;7.2;;;;;;;10.15;74.78223;952.2324;;;;
2019/04/08 04:12:20;;;;;;;7.9;7.1;;;;;;;10.24;74.88965;952.1761;;;;
2019/04/08 04:14:45;;;;;;;8.3;7.5;;;;;;;10.23;74.6582;952.1941;;;;
2019/04/08 04:17:10;;;;;;;9.4;8.4;;;;;;;9.95;75.86426;952.2598;;;;
2019/04/08 04:19:35;;;;;;;9.2;8.3;;;;;;;10;75.82617;952.2205;;;;
2019/04/08 04:22:00;;;;;;;8.9;8;;;;;;;10.1;75.60059;952.2156;;;;
2019/04/08 04:24:25;;;;;;;9.9;8.9;;;;;;;9.93;76.20508;952.2969;;;;
2019/04/08 04:26:50;;;;;;;8.8;7.9;;;;;;;9.92;76.5918;952.3067;;;;
2019/04/08 04:29:15;;;;;;;8.5;7.7;;;;;;;9.85;76.7998;952.3264;;;;
2019/04/08 04:31:40;;;;;;;8.6;7.8;;;;;;;9.93;76.52637;952.2668;;;;
2019/04/08 04:34:05;;;;;;;9;8.1;;;;;;;9.91;76.24609;952.3295;;;;
2019/04/08 04:36:30;;;;;;;9.3;8.4;;;;;;;9.85;76.78809;952.3566;;;;
2019/04/08 04:38:55;;;;;;;8.8;7.1;;;;;;;9.97;76.38379;952.3145;;;;
2019/04/08 04:41:21;;;;;;;8.2;7.4;;;;;;;9.88;76.67773;952.4066;;;;
2019/04/08 04:43:46;;;;;;;7.4;6.7;;;;;;;9.96;76.25488;952.4722;;;;
2019/04/08 04:46:11;;;;;;;7.4;6.6;;;;;;;9.98;76.21387;952.5002;;;;
2019/04/08 04:48:36;;;;;;;7.7;6.9;;;;;;;10.02;76.40234;952.5184;;;;
2019/04/08 04:51:01;;;;;;;7.8;7.1;;;;;;;9.95;76.30176;952.5853;;;;
2019/04/08 04:53:26;;;;;;;7.6;6.9;;;;;;;9.8;76.86035;952.5219;;;;
2019/04/08 04:55:51;;;;;;;8;6.6;;;;;;;9.78;76.86719;952.5586;;;;
2019/04/08 04:58:17;;;;;;;6.9;6.2;;;;;;;9.84;76.31348;952.5922;;;;
2019/04/08 05:00:42;;;;;;;7.2;6.5;;;;;;;9.78;76.80957;952.5415;;;;
2019/04/08 05:03:07;;;;;;;6.4;5.8;;;;;;;9.88;76.21973;952.6531;;;;
2019/04/08 05:05:32;;;;;;;7.1;6.4;;;;;;;9.86;76.42188;952.6031;;;;
2019/04/08 05:07:57;;;;;;;6.4;5.8;;;;;;;9.93;76.25098;952.5923;;;;
2019/04/08 05:10:22;;;;;;;7;6.3;;;;;;;9.9;76.1084;952.6339;;;;
2019/04/08 05:12:47;;;;;;;6.7;6;;;;;;;9.9;75.78613;952.6989;;;;
2019/04/08 05:15:13;;;;;;;6.2;5.6;;;;;;;9.89;76.11621;952.7133;;;;
2019/04/08 05:17:38;;;;;;;6.8;5.6;;;;;;;9.9;76.07324;952.747;;;;
2019/04/08 05:20:03;;;;;;;6.5;5.9;;;;;;;9.89;76.00098;952.7303;;;;
2019/04/08 05:22:29;;;;;;;7.1;6.4;;;;;;;9.85;76.14453;952.7952;;;;
2019/04/08 05:24:54;;;;;;;6.8;6.1;;;;;;;9.82;76.45996;952.8372;;;;
2019/04/08 05:27:20;;;;;;;7.8;7.1;;;;;;;9.74;76.90625;952.8964;;;;
2019/04/08 05:29:45;;;;;;;8.4;7.6;;;;;;;9.73;77.12207;952.9582;;;;
2019/04/08 05:32:10;;;;;;;8.8;7.9;;;;;;;9.73;77.23633;952.9631;;;;
2019/04/08 05:34:35;;;;;;;10;9;;;;;;;9.57;78.2998;952.9776;;;;
2019/04/08 05:37:00;;;;;;;9.4;8.5;;;;;;;9.53;78.59082;952.9639;;;;
2019/04/08 05:39:26;;;;;;;10.9;9;;;;;;;9.67;78.31836;952.999;;;;
2019/04/08 05:41:51;;;;;;;10.2;8.4;;;;;;;9.83;77.73828;953.0308;;;;
2019/04/08 05:44:16;;;;;;;11;9.9;;;;;;;9.65;78.50879;953.0181;;;;
2019/04/08 05:46:41;;;;;;;9.7;8.8;;;;;;;9.54;79.12012;953.033;;;;
2019/04/08 05:49:14;;;;;;;10.4;9.4;;;;;;;9.65;78.76074;953.1093;;;;
2019/04/08 05:56:29;;;;;;;11.1;9.9;;;;;;;9.51;79.51758;953.1395;;;;
2019/04/08 06:02:25;;;;;;;11.1;9.9;;;;;;;9.63;79.14844;953.1325;;;;
2019/04/08 06:04:33;;;;;;;11.8;10.7;;;;;;;9.62;78.97461;953.1512;;;;
2019/04/08 06:07:00;;;;;;;13.1;11.7;;;;;;;9.6;79.39551;953.1049;;;;
2019/04/08 06:09:43;;;;;;;12.3;11;;;;;;;9.63;79.52734;953.2106;;;;
2019/04/08 06:11:55;;;;;;;12.1;10.9;;;;;;;9.66;79.22363;953.1166;;;;
2019/04/08 06:14:10;;;;;;;11.9;10.8;;;;;;;9.77;79.38281;953.1017;;;;
2019/04/08 06:16:38;;;;;;;12.4;11.2;;;;;;;9.84;78.51953;953.113;;;;
2019/04/08 06:19:10;;;;;;;12.8;11.5;;;;;;;9.8;78.57031;953.1038;;;;
2019/04/08 06:21:28;;;;;;;12.2;10.5;;;;;;;9.83;78.50781;953.1008;;;;
2019/04/08 06:24:02;;;;;;;12.6;11.3;;;;;;;9.77;78.66895;953.0806;;;;
2019/04/08 06:29:04;;;;;;;12.5;11.2;;;;;;;9.81;78.48145;953.0633;;;;
2019/04/08 06:31:30;;;;;;;12.7;11.4;;;;;;;9.69;78.79395;953.1181;;;;
2019/04/08 06:36:03;;;;;;;13.1;11.7;;;;;;;9.86;78.22559;953.1418;;;;
2019/04/08 06:38:23;;;;;;;13.5;10.8;;;;;;;9.83;78.41602;953.1358;;;;
2019/04/08 06:40:57;;;;;;;11.6;10.5;;;;;;;10.01;77.58691;953.1011;;;;
2019/04/08 06:48:05;;;;;;;12.2;11;;;;;;;9.96;77.41602;953.1144;;;;
2019/04/08 06:50:46;;;;;;;19;11.1;;;;;;;10.03;77.26758;953.147;;;;
2019/04/08 06:53:06;;;;;;;14.2;10.7;;;;;;;10;77.50293;953.163;;;;
2019/04/08 06:55:20;;;;;;;11.5;10.3;;;;;;;10.09;77.33691;953.146;;;;
2019/04/08 07:00:16;;;;;;;11.3;10.1;;;;;;;9.92;77.31641;953.2703;;;;
2019/04/08 07:05:11;;;;;;;11.9;10.6;;;;;;;9.77;77.90918;953.2197;;;;
2019/04/08 07:07:43;;;;;;;12.7;11.4;;;;;;;9.79;77.93848;953.3039;;;;
2019/04/08 07:09:58;;;;;;;11.5;10.3;;;;;;;9.95;77.44922;953.3414;;;;
2019/04/08 07:14:48;;;;;;;11.8;10.6;;;;;;;9.9;76.8418;953.3114;;;;
2019/04/08 07:17:12;;;;;;;11.8;10.7;;;;;;;9.77;77.15234;953.406;;;;
2019/04/08 07:19:39;;;;;;;11.3;10.2;;;;;;;9.73;77.40918;953.2275;;;;
2019/04/08 07:22:03;;;;;;;11.2;10.1;;;;;;;9.79;77.25879;953.2347;;;;
2019/04/08 07:24:33;;;;;;;12.3;11;;;;;;;9.8;77.33008;953.2037;;;;
2019/04/08 07:28:26;;;;;;;11.4;10.3;;;;;;;9.92;77.37402;953.2402;;;;
2019/04/08 07:29:22;;;;;;;10.5;9.4;;;;;;;10.11;75.90332;953.1349;;;;
2019/04/08 07:31:42;;;;;;;10.9;9.8;;;;;;;10.36;74.97949;953.1808;;;;
2019/04/08 07:34:09;;;;;;;11;10;;;;;;;10.3;74.6709;953.2729;;;;
2019/04/08 07:43:54;;;;;;;9.9;9;;;;;;;10.53;73.28418;953.2684;;;;
2019/04/08 07:49:15;;;;;;;11.4;9.8;;;;;;;10.59;73.44238;953.3235;;;;
2019/04/08 07:56:17;;;;;;;11.9;10.7;;;;;;;10.3;74.24512;953.3903;;;;
2019/04/08 08:07:42;;;;;;;12.3;11.1;;;;;;;10.37;73.24316;953.4927;;;;
2019/04/08 08:10:15;;;;;;;11.4;10.2;;;;;;;10.46;73.19141;953.5179;;;;
2019/04/08 08:15:23;;;;;;;11.7;10.6;;;;;;;10.2;74.07715;953.5173;;;;
2019/04/08 08:18:00;;;;;;;14.1;10.7;;;;;;;10.42;73.15039;953.4875;;;;
2019/04/08 08:20:29;;;;;;;11.7;10.6;;;;;;;10.52;73.06348;953.5299;;;;
2019/04/08 08:32:51;;;;;;;10.8;9.2;;;;;;;11.37;68.80176;953.5986;;;;
2019/04/08 08:35:12;;;;;;;9.7;8.8;;;;;;;11.29;69.05566;953.6152;;;;
2019/04/08 08:37:39;;;;;;;10.3;8.7;;;;;;;11.29;69.2168;953.5197;;;;
2019/04/08 08:40:16;;;;;;;10.7;9.1;;;;;;;11.19;69.22266;953.6031;;;;
2019/04/08 08:42:34;;;;;;;11.1;8.9;;;;;;;11.39;68.93262;953.6051;;;;
2019/04/08 08:44:56;;;;;;;10;9;;;;;;;11.65;68.08496;953.5878;;;;
2019/04/08 08:47:30;;;;;;;10;9;;;;;;;11.37;68.50195;953.6287;;;;
2019/04/08 08:52:30;;;;;;;9;8.1;;;;;;;11.6;67.31543;953.5703;;;;
2019/04/08 08:55:45;;;;;;;10.1;8.6;;;;;;;11.39;67.57227;953.4916;;;;
2019/04/08 08:56:56;;;;;;;8.6;7.8;;;;;;;11.72;68.33789;953.5154;;;;
2019/04/08 09:02:30;;;;;;;9.1;8.2;;;;;;;11.93;66.27148;953.4978;;;;
2019/04/08 09:04:54;;;;;;;9;8.1;;;;;;;11.75;66.06934;953.5123;;;;
2019/04/08 09:12:57;;;;;;;8;7.2;;;;;;;12.08;64.45703;953.4869;;;;
2019/04/08 09:14:51;;;;;;;7.5;6.8;;;;;;;12.03;65.29199;953.4747;;;;
2019/04/08 09:17:09;;;;;;;7.8;7;;;;;;;11.77;65.4834;953.3533;;;;
2019/04/08 09:19:40;;;;;;;8.2;7.4;;;;;;;11.84;65.59863;953.4327;;;;
2019/04/08 09:24:25;;;;;;;8.7;7.3;;;;;;;12.06;64.86914;953.5027;;;;
2019/04/08 09:29:37;;;;;;;9.6;7.3;;;;;;;11.82;66.49609;953.5176;;;;
2019/04/08 09:32:16;;;;;;;9.8;8.8;;;;;;;11.6;66.21973;953.492;;;;
2019/04/08 09:36:31;;;;;;;9.3;7.8;;;;;;;11.66;65.83594;953.582;;;;
2019/04/08 09:39:02;;;;;;;9.5;8.1;;;;;;;11.59;66.28613;953.5419;;;;
2019/04/08 09:41:30;;;;;;;9.3;7.9;;;;;;;11.73;65.94043;953.4879;;;;
2019/04/08 09:44:05;;;;;;;8.3;7.5;;;;;;;11.83;65.2627;953.5952;;;;
2019/04/08 09:46:14;;;;;;;8.6;7.7;;;;;;;11.9;65.91992;953.6144;;;;
2019/04/08 09:48:58;;;;;;;9.2;8;;;;;;;11.91;65.25195;953.6401;;;;
2019/04/08 09:51:20;;;;;;;8.9;8;;;;;;;11.66;65.98535;953.6302;;;;
2019/04/08 09:53:43;;;;;;;8.6;7.8;;;;;;;11.81;65.61621;953.5803;;;;
2019/04/08 10:07:46;;;;;;;10.1;8.5;;;;;;;11.69;66.41797;953.6181;;;;
2019/04/08 10:12:43;;;;;;;8.6;7.7;;;;;;;11.76;65.30957;953.6456;;;;
2019/04/08 10:15:03;;;;;;;8.6;7.7;;;;;;;11.48;65.74023;953.6219;;;;
2019/04/08 10:17:28;;;;;;;8.6;7.5;;;;;;;11.47;66.43066;953.6448;;;;
2019/04/08 10:20:01;;;;;;;8.9;7.9;;;;;;;11.52;66.15137;953.6092;;;;
2019/04/08 10:22:16;;;;;;;9.8;8.3;;;;;;;11.37;66.47266;953.5856;;;;
2019/04/08 10:24:54;;;;;;;10;7.6;;;;;;;11.36;66.66797;953.6644;;;;
2019/04/08 10:27:10;;;;;;;9.2;8;;;;;;;11.5;66.83887;953.5723;;;;
2019/04/08 10:29:39;;;;;;;8.8;7.4;;;;;;;11.75;65.83887;953.5947;;;;
2019/04/08 10:32:08;;;;;;;9.9;7.8;;;;;;;11.65;65.5127;953.6703;;;;
2019/04/08 10:37:08;;;;;;;10.1;7.9;;;;;;;11.19;67.0459;953.5942;;;;
2019/04/08 10:39:33;;;;;;;8.9;7.6;;;;;;;11.33;66.52441;953.6716;;;;
2019/04/08 10:42:12;;;;;;;8.8;7.5;;;;;;;11.43;66.9082;953.7531;;;;
2019/04/08 10:44:28;;;;;;;8.6;7.4;;;;;;;11.38;66.16211;953.7194;;;;
2019/04/08 10:46:51;;;;;;;9.3;7.1;;;;;;;11.42;66.38867;953.7366;;;;
2019/04/08 10:49:50;;;;;;;9;7.8;;;;;;;11.27;66.66504;953.6647;;;;
2019/04/08 10:51:52;;;;;;;8.7;7.8;;;;;;;11.26;66.99902;953.7136;;;;
2019/04/08 11:00:08;;;;;;;8.1;7.2;;;;;;;11.37;66.86426;953.7202;;;;
2019/04/08 11:02:29;;;;;;;8.9;7.4;;;;;;;11.38;66.44043;953.7274;;;;
2019/04/08 11:08:16;;;;;;;9.2;6.9;;;;;;;11.63;65.96973;953.7852;;;;
2019/04/08 11:12:55;;;;;;;10.4;7.2;;;;;;;11.85;65.10352;953.7679;;;;
2019/04/08 11:15:22;;;;;;;7.7;6.9;;;;;;;11.77;65.73926;953.7272;;;;
2019/04/08 11:17:49;;;;;;;10.1;7.1;;;;;;;11.85;65.44824;953.7766;;;;
2019/04/08 11:20:09;;;;;;;8.9;7.4;;;;;;;11.91;66.14063;953.7748;;;;
2019/04/08 11:28:09;;;;;;;8.7;7.2;;;;;;;12.08;64.43359;953.8049;;;;
2019/04/08 11:29:58;;;;;;;8.2;7.1;;;;;;;12.1;66.15723;953.7852;;;;
2019/04/08 11:32:21;;;;;;;8.6;7.2;;;;;;;12;65.99219;953.7784;;;;
2019/04/08 11:34:43;;;;;;;8.6;7.7;;;;;;;11.91;65.41309;953.801;;;;
2019/04/08 11:37:09;;;;;;;8.6;7.7;;;;;;;12.16;65.12598;953.7797;;;;
2019/04/08 11:41:59;;;;;;;8.2;7;;;;;;;12.19;65.39844;953.8108;;;;
2019/04/08 11:47:04;;;;;;;8.8;6.7;;;;;;;12.29;65.05566;953.7745;;;;
2019/04/08 11:49:20;;;;;;;7.9;6.7;;;;;;;12.25;63.59277;953.731;;;;
2019/04/08 12:00:02;;;;;;;8.7;6.9;;;;;;;12.67;63.26074;953.7352;;;;
2019/04/08 12:02:24;;;;;;;8.5;7.6;;;;;;;12.23;63.02246;953.7414;;;;
2019/04/08 12:06:40;;;;;;;8;6.8;;;;;;;12.45;63.40234;953.7626;;;;
2019/04/08 12:07:14;;;;;;;8;6.9;;;;;;;12.7;62.64063;953.7148;;;;
2019/04/08 12:09:44;;;;;;;8.7;7.2;;;;;;;12.64;62.20508;953.7162;;;;
2019/04/08 12:15:23;;;;;;;9;7;;;;;;;12.86;61.52832;953.6453;;;;
2019/04/08 12:17:49;;;;;;;7.3;6.5;;;;;;;13.1;61.01855;953.6069;;;;
2019/04/08 12:22:39;;;;;;;9.1;7.5;;;;;;;13.03;60.43164;953.5922;;;;
2019/04/08 12:25:04;;;;;;;7.4;6.6;;;;;;;13;60.79785;953.5341;;;;
2019/04/08 12:27:29;;;;;;;8.1;6.7;;;;;;;13.03;62.25977;953.5227;;;;
2019/04/08 12:29:49;;;;;;;8.9;8;;;;;;;12.45;61.95801;953.6139;;;;
2019/04/08 12:32:17;;;;;;;8.5;7.5;;;;;;;12.52;61.26172;953.515;;;;
2019/04/08 12:34:34;;;;;;;9.1;8.2;;;;;;;12.37;61.4834;953.5483;;;;
2019/04/08 12:37:06;;;;;;;7.8;7;;;;;;;12.57;61.93945;953.5012;;;;
2019/04/08 12:40:50;;;;;;;9.9;8.5;;;;;;;12.56;60.60938;953.5676;;;;
2019/04/08 12:42:04;;;;;;;8.7;7.8;;;;;;;12.57;61.04883;953.5324;;;;
2019/04/08 12:46:45;;;;;;;9.1;7.9;;;;;;;12.47;60.80371;953.6031;;;;
2019/04/08 12:54:09;;;;;;;9.9;8.3;;;;;;;12.64;60.89844;953.4849;;;;
2019/04/08 12:56:34;;;;;;;9.3;7.8;;;;;;;12.93;59.04004;953.4681;;;;
2019/04/08 12:58:56;;;;;;;10.5;7.6;;;;;;;13.26;58.32129;953.5156;;;;
2019/04/08 13:01:35;;;;;;;8.6;7.7;;;;;;;13.34;57.60059;953.481;;;;
2019/04/08 13:03:51;;;;;;;9.7;7.7;;;;;;;13.43;58.33203;953.5055;;;;
2019/04/08 13:06:25;;;;;;;10.1;8.4;;;;;;;13.56;56.81934;953.5002;;;;
2019/04/08 13:08:44;;;;;;;8.3;7.4;;;;;;;14.17;56.50391;953.4988;;;;
2019/04/08 13:11:18;;;;;;;8.8;7.2;;;;;;;14.13;54.73633;953.5244;;;;
2019/04/08 13:13:56;;;;;;;9.9;7.8;;;;;;;14.14;55.17676;953.5022;;;;
2019/04/08 13:16:30;;;;;;;9.6;8.1;;;;;;;14.55;56.06641;953.4863;;;;
2019/04/08 13:19:07;;;;;;;8.5;7.6;;;;;;;14.87;54.50293;953.4678;;;;
2019/04/08 13:21:41;;;;;;;8.5;7.6;;;;;;;14.83;52.68555;953.4114;;;;
2019/04/08 13:24:17;;;;;;;9.5;8.2;;;;;;;14.63;51.97461;953.4687;;;;
2019/04/08 13:26:56;;;;;;;9.4;7.7;;;;;;;14.77;51.31738;953.4832;;;;
2019/04/08 13:29:26;;;;;;;8.2;7.1;;;;;;;14.98;52.74902;953.4684;;;;
2019/04/08 13:31:53;;;;;;;8.2;7;;;;;;;15.24;51.51172;953.4475;;;;
2019/04/08 13:34:18;;;;;;;8;7;;;;;;;15.31;52.19531;953.4384;;;;
2019/04/08 13:36:44;;;;;;;8;7.2;;;;;;;15.53;50.44141;953.4267;;;;
2019/04/08 13:39:15;;;;;;;8.5;7;;;;;;;15.07;51.80566;953.3831;;;;
2019/04/08 13:41:45;;;;;;;9.9;8.2;;;;;;;14.79;52.43555;953.4987;;;;
2019/04/08 13:44:17;;;;;;;10;7.8;;;;;;;14.29;54.34863;953.4154;;;;
2019/04/08 13:46:42;;;;;;;8.6;7.4;;;;;;;14.26;53.40527;953.3664;;;;
2019/04/08 13:49:20;;;;;;;8.2;7.4;;;;;;;14.64;53.34766;953.4021;;;;
2019/04/08 13:51:50;;;;;;;8.9;7.8;;;;;;;14.57;51.74805;953.3576;;;;
2019/04/08 13:54:25;;;;;;;8.4;7.6;;;;;;;14.35;52.84766;953.3822;;;;
2019/04/08 13:56:55;;;;;;;8.9;7.6;;;;;;;14.59;52.12109;953.3113;;;;
2019/04/08 13:59:21;;;;;;;8.1;7.1;;;;;;;14.6;52.14551;953.345;;;;
2019/04/08 14:01:51;;;;;;;9.4;8;;;;;;;14.39;51.83105;953.3469;;;;
2019/04/08 14:04:25;;;;;;;9.4;8;;;;;;;14.1;52.74805;953.3705;;;;
2019/04/08 14:06:59;;;;;;;8.3;7.4;;;;;;;13.84;54.0957;953.3257;;;;
2019/04/08 14:09:37;;;;;;;8.3;7.5;;;;;;;13.94;53.67969;953.3492;;;;
2019/04/08 14:12:12;;;;;;;8.6;7.7;;;;;;;14.26;54.74023;953.3261;;;;
2019/04/08 14:14:50;;;;;;;7.1;6.2;;;;;;;14.41;55.56055;953.3097;;;;
2019/04/08 14:17:44;;;;;;;7.4;6.7;;;;;;;14.47;53.69727;953.3159;;;;
2019/04/08 14:19:52;;;;;;;9.8;7.4;;;;;;;14.26;53.50977;953.3524;;;;
2019/04/08 14:22:30;;;;;;;7.6;6.8;;;;;;;14.26;54.50781;953.318;;;;
2019/04/08 14:25:04;;;;;;;10.7;7.3;;;;;;;14.04;52.91504;953.338;;;;
2019/04/08 14:27:33;;;;;;;9.5;7.5;;;;;;;14.2;53.16602;953.3683;;;;
2019/04/08 14:30:07;;;;;;;8.3;7.4;;;;;;;14.17;53.40625;953.3283;;;;
2019/04/08 14:32:33;;;;;;;7.6;6.8;;;;;;;14.39;53.53809;953.242;;;;
2019/04/08 14:35:08;;;;;;;8.8;7.3;;;;;;;14.04;53.37793;953.3077;;;;
2019/04/08 14:37:39;;;;;;;8;7.1;;;;;;;14.12;54.81445;953.2772;;;;
2019/04/08 14:40:15;;;;;;;7.7;6.3;;;;;;;14.44;53.39258;953.2709;;;;
2019/04/08 14:42:40;;;;;;;8.3;6.4;;;;;;;14.52;52.40332;953.2364;;;;
2019/04/08 14:45:05;;;;;;;9;6.3;;;;;;;14.54;52.69629;953.3133;;;;
2019/04/08 14:47:30;;;;;;;7.8;7;;;;;;;14.32;52.87793;953.3292;;;;
2019/04/08 14:49:55;;;;;;;9.1;7.3;;;;;;;14.12;53.34277;953.373;;;;
2019/04/08 14:52:20;;;;;;;8.5;7.2;;;;;;;14.08;53.09277;953.3205;;;;
2019/04/08 14:54:45;;;;;;;8.3;7.3;;;;;;;14.2;53.0498;953.338;;;;
2019/04/08 14:57:11;;;;;;;7.3;6.6;;;;;;;14.26;54.94922;953.3533;;;;
2019/04/08 14:59:36;;;;;;;8.3;6.5;;;;;;;14.4;54.74609;953.3066;;;;
2019/04/08 15:02:01;;;;;;;8.1;6.6;;;;;;;14.47;54.75391;953.2947;;;;
2019/04/08 15:04:26;;;;;;;6.9;6.2;;;;;;;14.49;54.52539;953.3052;;;;
2019/04/08 15:06:51;;;;;;;7;6.3;;;;;;;14.48;53.84961;953.2628;;;;
2019/04/08 15:09:16;;;;;;;7.2;6.5;;;;;;;14.58;53.02637;953.2558;;;;
2019/04/08 15:11:41;;;;;;;7.3;6.2;;;;;;;14.65;52.94238;953.2872;;;;
2019/04/08 15:14:07;;;;;;;6.9;6.1;;;;;;;14.75;53.79004;953.2675;;;;
2019/04/08 15:16:33;;;;;;;7.4;6.2;;;;;;;14.8;53.07617;953.2746;;;;
2019/04/08 15:18:58;;;;;;;7.5;6.7;;;;;;;14.58;54.16406;953.2911;;;;
2019/04/08 15:21:24;;;;;;;8;6.8;;;;;;;14.77;52.32813;953.3265;;;;
2019/04/08 15:23:49;;;;;;;13.1;11.3;;;;;;;14.32;53.83105;953.3111;;;;
2019/04/08 15:26:14;;;;;;;8.5;6.9;;;;;;;14.6;54.00488;953.236;;;;
2019/04/08 15:28:40;;;;;;;8.8;7.4;;;;;;;14.64;52.23242;953.2447;;;;
2019/04/08 15:31:05;;;;;;;8.1;7;;;;;;;14.45;52.79004;953.2703;;;;
2019/04/08 15:33:30;;;;;;;8.1;7.3;;;;;;;14.32;53.8877;953.2767;;;;
2019/04/08 15:35:55;;;;;;;7.6;6.9;;;;;;;14.35;53.10156;953.2733;;;;
2019/04/08 15:38:20;;;;;;;8.6;7.4;;;;;;;14.02;54.96484;953.2971;;;;
2019/04/08 15:40:45;;;;;;;9.7;7.7;;;;;;;13.81;55.55469;953.2626;;;;
2019/04/08 15:43:10;;;;;;;8.8;7.4;;;;;;;14.04;55.2002;953.342;;;;
2019/04/08 15:45:36;;;;;;;8;7.2;;;;;;;14.1;54.65039;953.3624;;;;
2019/04/08 15:48:01;;;;;;;8.1;7.3;;;;;;;14.14;55.05078;953.3702;;;;
2019/04/08 15:50:26;;;;;;;7.9;7.1;;;;;;;14.01;56.19238;953.3596;;;;
2019/04/08 15:52:51;;;;;;;8.4;7;;;;;;;14.05;55.35254;953.3633;;;;
2019/04/08 15:55:16;;;;;;;7.3;6.4;;;;;;;14.09;56.00586;953.3811;;;;
2019/04/08 15:57:41;;;;;;;7.6;6.7;;;;;;;14.23;55.93066;953.3567;;;;
2019/04/08 16:00:07;;;;;;;8.4;6.5;;;;;;;14.27;55.55371;953.3477;;;;
2019/04/08 16:02:32;;;;;;;6.4;5.8;;;;;;;14.44;54.90234;953.2668;;;;
2019/04/08 16:04:57;;;;;;;7.8;6.7;;;;;;;14.31;56.78906;953.3523;;;;
2019/04/08 16:07:22;;;;;;;8;6.9;;;;;;;14.27;55.26367;953.3214;;;;
2019/04/08 16:09:47;;;;;;;9.6;6.9;;;;;;;14.09;56.87793;953.3936;;;;
2019/04/08 16:12:13;;;;;;;7.2;6.4;;;;;;;14.12;57.07715;953.4301;;;;
2019/04/08 16:14:38;;;;;;;7.7;6.6;;;;;;;14.06;56.18848;953.4363;;;;
2019/04/08 16:17:04;;;;;;;7.9;6.5;;;;;;;14.18;56.07617;953.4539;;;;
2019/04/08 16:19:29;;;;;;;7.1;6;;;;;;;14.2;55.89258;953.4217;;;;
2019/04/08 16:21:54;;;;;;;8.5;6.9;;;;;;;13.82;57.12012;953.4545;;;;
2019/04/08 16:24:19;;;;;;;7.7;6.9;;;;;;;13.75;57.34277;953.4005;;;;
2019/04/08 16:26:44;;;;;;;7.5;6.3;;;;;;;13.8;57.51074;953.4439;;;;
2019/04/08 16:29:09;;;;;;;8.9;7.5;;;;;;;13.6;57.78613;953.4657;;;;
2019/04/08 16:31:34;;;;;;;9.7;8;;;;;;;13.39;59.36914;953.4097;;;;
2019/04/08 16:34:00;;;;;;;10.7;8.8;;;;;;;13.38;59.20508;953.3452;;;;